sensor_id;sensor_type;location;lat;lon;timestamp;temperature;humidity
12872;DHT22;6504;53.766;9.626;2023-10-19T00:02:18;7.80;99.90
12872;DHT22;6504;53.766;9.626;2023-10-19T00:04:46;7.80;99.90
12872;DHT22;6504;53.766;9.626;2023-10-19T00:07:16;7.80;99.90
12872;DHT22;6504;53.766;9.626;2023-10-19T00:09:43;7.80;99.90
12872;DHT22;6504;53.766;9.626;2023-10-19T00:12:15;7.80;99.90
12872;DHT22;6504;53.766;9.626;2023-10-19T00:14:43;7.80;99.90
12872;DHT22;6504;53.766;9.626;2023-10-19T00:17:12;7.80;99.90
12872;DHT22;6504;53.766;9.626;2023-10-19T00:19:41;7.80;99.90
12872;DHT22;6504;53.766;9.626;2023-10-19T00:22:26;7.80;99.90
12872;DHT22;6504;53.766;9.626;2023-10-19T00:24:57;7.80;99.90
12872;DHT22;6504;53.766;9.626;2023-10-19T00:27:26;7.80;99.90
12872;DHT22;6504;53.766;9.626;2023-10-19T00:29:54;7.80;99.90
12872;DHT22;6504;53.766;9.626;2023-10-19T00:32:32;7.80;99.90
12872;DHT22;6504;53.766;9.626;2023-10-19T00:35:06;7.80;99.90
12872;DHT22;6504;53.766;9.626;2023-10-19T00:37:56;7.80;99.90
12872;DHT22;6504;53.766;9.626;2023-10-19T00:40:50;7.80;99.90
12872;DHT22;6504;53.766;9.626;2023-10-19T00:43:27;7.80;99.90
12872;DHT22;6504;53.766;9.626;2023-10-19T00:46:01;7.80;99.90
12872;DHT22;6504;53.766;9.626;2023-10-19T00:48:37;7.80;99.90
12872;DHT22;6504;53.766;9.626;2023-10-19T00:51:07;7.80;99.90
12872;DHT22;6504;53.766;9.626;2023-10-19T00:53:38;7.80;99.90
12872;DHT22;6504;53.766;9.626;2023-10-19T00:56:09;7.80;99.90
12872;DHT22;6504;53.766;9.626;2023-10-19T00:58:38;7.80;99.90
12872;DHT22;6504;53.766;9.626;2023-10-19T01:01:08;7.80;99.90
12872;DHT22;6504;53.766;9.626;2023-10-19T01:03:37;7.80;99.90
12872;DHT22;6504;53.766;9.626;2023-10-19T01:06:06;7.80;99.90
12872;DHT22;6504;53.766;9.626;2023-10-19T01:08:41;7.80;99.90
12872;DHT22;6504;53.766;9.626;2023-10-19T01:11:10;7.80;99.90
12872;DHT22;6504;53.766;9.626;2023-10-19T01:13:41;7.80;99.90
12872;DHT22;6504;53.766;9.626;2023-10-19T01:16:13;7.80;99.90
12872;DHT22;6504;53.766;9.626;2023-10-19T01:18:49;7.80;99.90
12872;DHT22;6504;53.766;9.626;2023-10-19T01:21:22;7.80;99.90
12872;DHT22;6504;53.766;9.626;2023-10-19T01:23:55;7.80;99.90
12872;DHT22;6504;53.766;9.626;2023-10-19T01:26:23;7.80;99.90
12872;DHT22;6504;53.766;9.626;2023-10-19T01:28:53;7.90;99.90
12872;DHT22;6504;53.766;9.626;2023-10-19T01:31:27;7.80;99.90
12872;DHT22;6504;53.766;9.626;2023-10-19T01:34:05;7.90;99.90
12872;DHT22;6504;53.766;9.626;2023-10-19T01:36:34;7.90;99.90
12872;DHT22;6504;53.766;9.626;2023-10-19T01:39:11;7.80;99.90
12872;DHT22;6504;53.766;9.626;2023-10-19T01:41:39;7.80;99.90
12872;DHT22;6504;53.766;9.626;2023-10-19T01:44:08;7.80;99.90
12872;DHT22;6504;53.766;9.626;2023-10-19T01:46:41;7.90;99.90
12872;DHT22;6504;53.766;9.626;2023-10-19T01:49:11;7.80;99.90
12872;DHT22;6504;53.766;9.626;2023-10-19T01:51:38;7.90;99.90
12872;DHT22;6504;53.766;9.626;2023-10-19T01:54:06;7.80;99.90
12872;DHT22;6504;53.766;9.626;2023-10-19T01:56:36;7.90;99.90
12872;DHT22;6504;53.766;9.626;2023-10-19T01:59:06;7.90;99.90
12872;DHT22;6504;53.766;9.626;2023-10-19T02:01:35;7.90;99.90
12872;DHT22;6504;53.766;9.626;2023-10-19T02:04:05;7.90;99.90
12872;DHT22;6504;53.766;9.626;2023-10-19T02:06:34;7.90;99.90
12872;DHT22;6504;53.766;9.626;2023-10-19T02:09:05;7.90;99.90
12872;DHT22;6504;53.766;9.626;2023-10-19T02:11:50;7.90;99.90
12872;DHT22;6504;53.766;9.626;2023-10-19T02:14:20;7.90;99.90
12872;DHT22;6504;53.766;9.626;2023-10-19T02:16:49;7.90;99.90
12872;DHT22;6504;53.766;9.626;2023-10-19T02:19:20;7.90;99.90
12872;DHT22;6504;53.766;9.626;2023-10-19T02:21:48;7.90;99.90
12872;DHT22;6504;53.766;9.626;2023-10-19T02:24:16;7.90;99.90
12872;DHT22;6504;53.766;9.626;2023-10-19T02:26:43;7.90;99.90
12872;DHT22;6504;53.766;9.626;2023-10-19T02:29:15;7.90;99.90
12872;DHT22;6504;53.766;9.626;2023-10-19T02:31:43;7.90;99.90
12872;DHT22;6504;53.766;9.626;2023-10-19T02:34:12;7.90;99.90
12872;DHT22;6504;53.766;9.626;2023-10-19T02:36:43;7.90;99.90
12872;DHT22;6504;53.766;9.626;2023-10-19T02:39:13;7.90;99.90
12872;DHT22;6504;53.766;9.626;2023-10-19T02:41:42;7.90;99.90
12872;DHT22;6504;53.766;9.626;2023-10-19T02:44:12;7.90;99.90
12872;DHT22;6504;53.766;9.626;2023-10-19T02:46:49;7.90;99.90
12872;DHT22;6504;53.766;9.626;2023-10-19T02:49:21;7.90;99.90
12872;DHT22;6504;53.766;9.626;2023-10-19T02:51:50;7.90;99.90
12872;DHT22;6504;53.766;9.626;2023-10-19T02:54:21;7.90;99.90
12872;DHT22;6504;53.766;9.626;2023-10-19T02:56:50;7.90;99.90
12872;DHT22;6504;53.766;9.626;2023-10-19T02:59:21;7.90;99.90
12872;DHT22;6504;53.766;9.626;2023-10-19T03:01:51;7.90;99.90
12872;DHT22;6504;53.766;9.626;2023-10-19T03:04:22;7.90;99.90
12872;DHT22;6504;53.766;9.626;2023-10-19T03:06:49;7.90;99.90
12872;DHT22;6504;53.766;9.626;2023-10-19T03:09:19;7.90;99.90
12872;DHT22;6504;53.766;9.626;2023-10-19T03:11:56;7.90;99.90
12872;DHT22;6504;53.766;9.626;2023-10-19T03:14:26;7.90;99.90
12872;DHT22;6504;53.766;9.626;2023-10-19T03:16:56;7.90;99.90
12872;DHT22;6504;53.766;9.626;2023-10-19T03:19:27;7.90;99.90
12872;DHT22;6504;53.766;9.626;2023-10-19T03:21:55;7.90;99.90
12872;DHT22;6504;53.766;9.626;2023-10-19T03:24:27;7.90;99.90
12872;DHT22;6504;53.766;9.626;2023-10-19T03:27:03;7.90;99.90
12872;DHT22;6504;53.766;9.626;2023-10-19T03:29:39;7.90;99.90
12872;DHT22;6504;53.766;9.626;2023-10-19T03:32:15;7.90;99.90
12872;DHT22;6504;53.766;9.626;2023-10-19T03:34:43;7.90;99.90
12872;DHT22;6504;53.766;9.626;2023-10-19T03:37:15;7.90;99.90
12872;DHT22;6504;53.766;9.626;2023-10-19T03:39:46;7.90;99.90
12872;DHT22;6504;53.766;9.626;2023-10-19T03:42:15;7.90;99.90
12872;DHT22;6504;53.766;9.626;2023-10-19T03:44:44;7.90;99.90
12872;DHT22;6504;53.766;9.626;2023-10-19T03:47:18;7.90;99.90
12872;DHT22;6504;53.766;9.626;2023-10-19T03:49:48;7.90;99.90
12872;DHT22;6504;53.766;9.626;2023-10-19T03:52:17;7.90;99.90
12872;DHT22;6504;53.766;9.626;2023-10-19T03:54:49;7.80;99.90
12872;DHT22;6504;53.766;9.626;2023-10-19T03:57:18;7.90;99.90
12872;DHT22;6504;53.766;9.626;2023-10-19T03:59:52;7.80;99.90
12872;DHT22;6504;53.766;9.626;2023-10-19T04:02:26;7.80;99.90
12872;DHT22;6504;53.766;9.626;2023-10-19T04:04:56;7.80;99.90
12872;DHT22;6504;53.766;9.626;2023-10-19T04:07:25;7.80;99.90
12872;DHT22;6504;53.766;9.626;2023-10-19T04:09:58;7.80;99.90
12872;DHT22;6504;53.766;9.626;2023-10-19T04:12:37;7.80;99.90
12872;DHT22;6504;53.766;9.626;2023-10-19T04:15:09;7.70;99.90
12872;DHT22;6504;53.766;9.626;2023-10-19T04:17:42;7.70;99.90
12872;DHT22;6504;53.766;9.626;2023-10-19T04:20:12;7.70;99.90
12872;DHT22;6504;53.766;9.626;2023-10-19T04:23:09;7.70;99.90
12872;DHT22;6504;53.766;9.626;2023-10-19T04:25:43;7.70;99.90
12872;DHT22;6504;53.766;9.626;2023-10-19T04:28:13;7.70;99.90
12872;DHT22;6504;53.766;9.626;2023-10-19T04:30:42;7.70;99.90
12872;DHT22;6504;53.766;9.626;2023-10-19T04:33:11;7.70;99.90
12872;DHT22;6504;53.766;9.626;2023-10-19T04:35:43;7.70;99.90
12872;DHT22;6504;53.766;9.626;2023-10-19T04:38:12;7.70;99.90
12872;DHT22;6504;53.766;9.626;2023-10-19T04:40:40;7.70;99.90
12872;DHT22;6504;53.766;9.626;2023-10-19T04:43:08;7.60;99.90
12872;DHT22;6504;53.766;9.626;2023-10-19T04:45:39;7.60;99.90
12872;DHT22;6504;53.766;9.626;2023-10-19T04:48:07;7.60;99.90
12872;DHT22;6504;53.766;9.626;2023-10-19T04:50:38;7.60;99.90
12872;DHT22;6504;53.766;9.626;2023-10-19T04:53:06;7.60;99.90
12872;DHT22;6504;53.766;9.626;2023-10-19T04:55:34;7.60;99.90
12872;DHT22;6504;53.766;9.626;2023-10-19T04:58:03;7.60;99.90
12872;DHT22;6504;53.766;9.626;2023-10-19T05:00:32;7.60;99.90
12872;DHT22;6504;53.766;9.626;2023-10-19T05:03:00;7.50;99.90
12872;DHT22;6504;53.766;9.626;2023-10-19T05:05:28;7.50;99.90
12872;DHT22;6504;53.766;9.626;2023-10-19T05:07:58;7.50;99.90
12872;DHT22;6504;53.766;9.626;2023-10-19T05:10:26;7.50;99.90
12872;DHT22;6504;53.766;9.626;2023-10-19T05:12:55;7.50;99.90
12872;DHT22;6504;53.766;9.626;2023-10-19T05:15:23;7.50;99.90
12872;DHT22;6504;53.766;9.626;2023-10-19T05:17:52;7.50;99.90
12872;DHT22;6504;53.766;9.626;2023-10-19T05:20:20;7.50;99.90
12872;DHT22;6504;53.766;9.626;2023-10-19T05:22:48;7.50;99.90
12872;DHT22;6504;53.766;9.626;2023-10-19T05:25:17;7.40;99.90
12872;DHT22;6504;53.766;9.626;2023-10-19T05:27:46;7.50;99.90
12872;DHT22;6504;53.766;9.626;2023-10-19T05:30:14;7.50;99.90
12872;DHT22;6504;53.766;9.626;2023-10-19T05:32:42;7.50;99.90
12872;DHT22;6504;53.766;9.626;2023-10-19T05:35:12;7.50;99.90
12872;DHT22;6504;53.766;9.626;2023-10-19T05:37:49;7.40;99.90
12872;DHT22;6504;53.766;9.626;2023-10-19T05:40:19;7.50;99.90
12872;DHT22;6504;53.766;9.626;2023-10-19T05:42:47;7.40;99.90
12872;DHT22;6504;53.766;9.626;2023-10-19T05:45:15;7.40;99.90
12872;DHT22;6504;53.766;9.626;2023-10-19T05:47:44;7.40;99.90
12872;DHT22;6504;53.766;9.626;2023-10-19T05:50:12;7.40;99.90
12872;DHT22;6504;53.766;9.626;2023-10-19T05:52:42;7.40;99.90
12872;DHT22;6504;53.766;9.626;2023-10-19T05:55:11;7.40;99.90
12872;DHT22;6504;53.766;9.626;2023-10-19T05:57:40;7.40;99.90
12872;DHT22;6504;53.766;9.626;2023-10-19T06:00:11;7.40;99.90
12872;DHT22;6504;53.766;9.626;2023-10-19T06:02:42;7.30;99.90
12872;DHT22;6504;53.766;9.626;2023-10-19T06:05:13;7.40;99.90
12872;DHT22;6504;53.766;9.626;2023-10-19T06:07:42;7.40;99.90
12872;DHT22;6504;53.766;9.626;2023-10-19T06:10:15;7.40;99.90
12872;DHT22;6504;53.766;9.626;2023-10-19T06:12:50;7.30;99.90
12872;DHT22;6504;53.766;9.626;2023-10-19T06:15:19;7.30;99.90
12872;DHT22;6504;53.766;9.626;2023-10-19T06:17:49;7.30;99.90
12872;DHT22;6504;53.766;9.626;2023-10-19T06:20:17;7.30;99.90
12872;DHT22;6504;53.766;9.626;2023-10-19T06:22:52;7.30;99.90
12872;DHT22;6504;53.766;9.626;2023-10-19T06:25:21;7.30;99.90
12872;DHT22;6504;53.766;9.626;2023-10-19T06:27:52;7.40;99.90
12872;DHT22;6504;53.766;9.626;2023-10-19T06:30:24;7.30;99.90
12872;DHT22;6504;53.766;9.626;2023-10-19T06:32:54;7.30;99.90
12872;DHT22;6504;53.766;9.626;2023-10-19T06:35:23;7.40;99.90
12872;DHT22;6504;53.766;9.626;2023-10-19T06:37:53;7.40;99.90
12872;DHT22;6504;53.766;9.626;2023-10-19T06:40:22;7.40;99.90
12872;DHT22;6504;53.766;9.626;2023-10-19T06:42:52;7.40;99.90
12872;DHT22;6504;53.766;9.626;2023-10-19T06:45:20;7.40;99.90
12872;DHT22;6504;53.766;9.626;2023-10-19T06:47:49;7.40;99.90
12872;DHT22;6504;53.766;9.626;2023-10-19T06:50:19;7.40;99.90
12872;DHT22;6504;53.766;9.626;2023-10-19T06:52:48;7.40;99.90
12872;DHT22;6504;53.766;9.626;2023-10-19T06:55:17;7.40;99.90
12872;DHT22;6504;53.766;9.626;2023-10-19T06:57:48;7.40;99.90
12872;DHT22;6504;53.766;9.626;2023-10-19T07:00:19;7.40;99.90
12872;DHT22;6504;53.766;9.626;2023-10-19T07:02:49;7.40;99.90
12872;DHT22;6504;53.766;9.626;2023-10-19T07:05:19;7.40;99.90
12872;DHT22;6504;53.766;9.626;2023-10-19T07:07:49;7.40;99.90
12872;DHT22;6504;53.766;9.626;2023-10-19T07:10:19;7.40;99.90
12872;DHT22;6504;53.766;9.626;2023-10-19T07:12:48;7.40;99.90
12872;DHT22;6504;53.766;9.626;2023-10-19T07:15:18;7.40;99.90
12872;DHT22;6504;53.766;9.626;2023-10-19T07:17:46;7.40;99.90
12872;DHT22;6504;53.766;9.626;2023-10-19T07:20:16;7.40;99.90
12872;DHT22;6504;53.766;9.626;2023-10-19T07:22:52;7.40;99.90
12872;DHT22;6504;53.766;9.626;2023-10-19T07:25:21;7.40;99.90
12872;DHT22;6504;53.766;9.626;2023-10-19T07:27:50;7.40;99.90
12872;DHT22;6504;53.766;9.626;2023-10-19T07:30:21;7.40;99.90
12872;DHT22;6504;53.766;9.626;2023-10-19T07:32:53;7.40;99.90
12872;DHT22;6504;53.766;9.626;2023-10-19T07:35:26;7.40;99.90
12872;DHT22;6504;53.766;9.626;2023-10-19T07:38:00;7.40;99.90
12872;DHT22;6504;53.766;9.626;2023-10-19T07:40:30;7.40;99.90
12872;DHT22;6504;53.766;9.626;2023-10-19T07:42:58;7.40;99.90
12872;DHT22;6504;53.766;9.626;2023-10-19T07:45:28;7.40;99.90
12872;DHT22;6504;53.766;9.626;2023-10-19T07:47:58;7.40;99.90
12872;DHT22;6504;53.766;9.626;2023-10-19T07:50:33;7.40;99.90
12872;DHT22;6504;53.766;9.626;2023-10-19T07:53:02;7.40;99.90
12872;DHT22;6504;53.766;9.626;2023-10-19T07:55:30;7.40;99.90
12872;DHT22;6504;53.766;9.626;2023-10-19T07:57:59;7.40;99.90
12872;DHT22;6504;53.766;9.626;2023-10-19T08:00:30;7.40;99.90
12872;DHT22;6504;53.766;9.626;2023-10-19T08:03:00;7.40;99.90
12872;DHT22;6504;53.766;9.626;2023-10-19T08:05:30;7.40;99.90
12872;DHT22;6504;53.766;9.626;2023-10-19T08:07:58;7.40;99.90
12872;DHT22;6504;53.766;9.626;2023-10-19T08:10:27;7.40;99.90
12872;DHT22;6504;53.766;9.626;2023-10-19T08:12:56;7.40;99.90
12872;DHT22;6504;53.766;9.626;2023-10-19T08:15:25;7.40;99.90
12872;DHT22;6504;53.766;9.626;2023-10-19T08:17:57;7.40;99.90
12872;DHT22;6504;53.766;9.626;2023-10-19T08:20:25;7.40;99.90
12872;DHT22;6504;53.766;9.626;2023-10-19T08:22:59;7.40;99.90
12872;DHT22;6504;53.766;9.626;2023-10-19T08:25:29;7.40;99.90
12872;DHT22;6504;53.766;9.626;2023-10-19T08:28:00;7.40;99.90
12872;DHT22;6504;53.766;9.626;2023-10-19T08:30:28;7.40;99.90
12872;DHT22;6504;53.766;9.626;2023-10-19T08:32:58;7.40;99.90
12872;DHT22;6504;53.766;9.626;2023-10-19T08:35:26;7.40;99.90
12872;DHT22;6504;53.766;9.626;2023-10-19T08:37:56;7.40;99.90
12872;DHT22;6504;53.766;9.626;2023-10-19T08:40:25;7.30;99.90
12872;DHT22;6504;53.766;9.626;2023-10-19T08:42:55;7.40;99.90
12872;DHT22;6504;53.766;9.626;2023-10-19T08:45:24;7.40;99.90
12872;DHT22;6504;53.766;9.626;2023-10-19T08:47:55;7.40;99.90
12872;DHT22;6504;53.766;9.626;2023-10-19T08:50:27;7.40;99.90
12872;DHT22;6504;53.766;9.626;2023-10-19T08:52:57;7.40;99.90
12872;DHT22;6504;53.766;9.626;2023-10-19T08:55:26;7.40;99.90
12872;DHT22;6504;53.766;9.626;2023-10-19T08:57:58;7.40;99.90
12872;DHT22;6504;53.766;9.626;2023-10-19T09:00:27;7.40;99.90
12872;DHT22;6504;53.766;9.626;2023-10-19T09:03:01;7.40;99.90
12872;DHT22;6504;53.766;9.626;2023-10-19T09:05:33;7.40;99.90
12872;DHT22;6504;53.766;9.626;2023-10-19T09:08:01;7.40;99.90
12872;DHT22;6504;53.766;9.626;2023-10-19T09:10:32;7.40;99.90
12872;DHT22;6504;53.766;9.626;2023-10-19T09:13:04;7.40;99.90
12872;DHT22;6504;53.766;9.626;2023-10-19T09:15:36;7.40;99.90
12872;DHT22;6504;53.766;9.626;2023-10-19T09:18:14;7.40;99.90
12872;DHT22;6504;53.766;9.626;2023-10-19T09:20:46;7.40;99.90
12872;DHT22;6504;53.766;9.626;2023-10-19T09:23:21;7.40;99.90
12872;DHT22;6504;53.766;9.626;2023-10-19T09:25:49;7.40;99.90
12872;DHT22;6504;53.766;9.626;2023-10-19T09:28:20;7.40;99.90
12872;DHT22;6504;53.766;9.626;2023-10-19T09:30:49;7.40;99.90
12872;DHT22;6504;53.766;9.626;2023-10-19T09:33:18;7.40;99.90
12872;DHT22;6504;53.766;9.626;2023-10-19T09:35:50;7.40;99.90
12872;DHT22;6504;53.766;9.626;2023-10-19T09:38:20;7.40;99.90
12872;DHT22;6504;53.766;9.626;2023-10-19T09:40:49;7.40;99.90
12872;DHT22;6504;53.766;9.626;2023-10-19T09:43:22;7.40;99.90
12872;DHT22;6504;53.766;9.626;2023-10-19T09:45:56;7.40;99.90
12872;DHT22;6504;53.766;9.626;2023-10-19T09:48:27;7.40;99.90
12872;DHT22;6504;53.766;9.626;2023-10-19T09:50:57;7.40;99.90
12872;DHT22;6504;53.766;9.626;2023-10-19T09:53:27;7.40;99.90
12872;DHT22;6504;53.766;9.626;2023-10-19T09:55:58;7.40;99.90
12872;DHT22;6504;53.766;9.626;2023-10-19T09:58:31;7.40;99.90
12872;DHT22;6504;53.766;9.626;2023-10-19T10:01:01;7.40;99.90
12872;DHT22;6504;53.766;9.626;2023-10-19T10:03:45;7.40;99.90
12872;DHT22;6504;53.766;9.626;2023-10-19T10:06:15;7.50;99.90
12872;DHT22;6504;53.766;9.626;2023-10-19T10:08:48;7.50;99.90
12872;DHT22;6504;53.766;9.626;2023-10-19T10:11:21;7.50;99.90
12872;DHT22;6504;53.766;9.626;2023-10-19T10:13:51;7.50;99.90
12872;DHT22;6504;53.766;9.626;2023-10-19T10:16:21;7.50;99.90
12872;DHT22;6504;53.766;9.626;2023-10-19T10:18:53;7.50;99.90
12872;DHT22;6504;53.766;9.626;2023-10-19T10:21:23;7.50;99.90
12872;DHT22;6504;53.766;9.626;2023-10-19T10:23:53;7.50;99.90
12872;DHT22;6504;53.766;9.626;2023-10-19T10:26:23;7.50;99.90
12872;DHT22;6504;53.766;9.626;2023-10-19T10:29:11;7.50;99.90
12872;DHT22;6504;53.766;9.626;2023-10-19T10:31:42;7.50;99.90
12872;DHT22;6504;53.766;9.626;2023-10-19T10:34:10;7.50;99.90
12872;DHT22;6504;53.766;9.626;2023-10-19T10:37:00;7.50;99.90
12872;DHT22;6504;53.766;9.626;2023-10-19T10:39:30;7.50;99.90
12872;DHT22;6504;53.766;9.626;2023-10-19T10:41:58;7.50;99.90
12872;DHT22;6504;53.766;9.626;2023-10-19T10:44:37;7.60;99.90
12872;DHT22;6504;53.766;9.626;2023-10-19T10:47:07;7.60;99.90
12872;DHT22;6504;53.766;9.626;2023-10-19T10:49:47;7.60;99.90
12872;DHT22;6504;53.766;9.626;2023-10-19T10:52:28;7.60;99.90
12872;DHT22;6504;53.766;9.626;2023-10-19T10:54:57;7.60;99.90
12872;DHT22;6504;53.766;9.626;2023-10-19T10:57:31;7.70;99.90
12872;DHT22;6504;53.766;9.626;2023-10-19T11:00:08;7.70;99.90
12872;DHT22;6504;53.766;9.626;2023-10-19T11:02:43;7.70;99.90
12872;DHT22;6504;53.766;9.626;2023-10-19T11:05:14;7.70;99.90
12872;DHT22;6504;53.766;9.626;2023-10-19T11:08:05;7.70;99.90
12872;DHT22;6504;53.766;9.626;2023-10-19T11:10:34;7.70;99.90
12872;DHT22;6504;53.766;9.626;2023-10-19T11:13:03;7.70;99.90
12872;DHT22;6504;53.766;9.626;2023-10-19T11:15:33;7.70;99.90
12872;DHT22;6504;53.766;9.626;2023-10-19T11:18:01;7.70;99.90
12872;DHT22;6504;53.766;9.626;2023-10-19T11:20:29;7.70;99.90
12872;DHT22;6504;53.766;9.626;2023-10-19T11:22:59;7.70;99.90
12872;DHT22;6504;53.766;9.626;2023-10-19T11:25:29;7.70;99.90
12872;DHT22;6504;53.766;9.626;2023-10-19T11:28:00;7.70;99.90
12872;DHT22;6504;53.766;9.626;2023-10-19T11:30:32;7.70;99.90
12872;DHT22;6504;53.766;9.626;2023-10-19T11:33:00;7.70;99.90
12872;DHT22;6504;53.766;9.626;2023-10-19T11:35:30;7.70;99.90
12872;DHT22;6504;53.766;9.626;2023-10-19T11:38:00;7.60;99.90
12872;DHT22;6504;53.766;9.626;2023-10-19T11:40:31;7.60;99.90
12872;DHT22;6504;53.766;9.626;2023-10-19T11:42:59;7.60;99.90
12872;DHT22;6504;53.766;9.626;2023-10-19T11:45:27;7.70;99.90
12872;DHT22;6504;53.766;9.626;2023-10-19T11:47:56;7.60;99.90
12872;DHT22;6504;53.766;9.626;2023-10-19T11:50:24;7.60;99.90
12872;DHT22;6504;53.766;9.626;2023-10-19T11:52:52;7.60;99.90
12872;DHT22;6504;53.766;9.626;2023-10-19T11:55:22;7.60;99.90
12872;DHT22;6504;53.766;9.626;2023-10-19T11:57:50;7.70;99.90
12872;DHT22;6504;53.766;9.626;2023-10-19T12:00:18;7.70;99.90
12872;DHT22;6504;53.766;9.626;2023-10-19T12:02:49;7.70;99.90
12872;DHT22;6504;53.766;9.626;2023-10-19T12:05:19;7.70;99.90
12872;DHT22;6504;53.766;9.626;2023-10-19T12:07:47;7.70;99.90
12872;DHT22;6504;53.766;9.626;2023-10-19T12:10:16;7.70;99.90
12872;DHT22;6504;53.766;9.626;2023-10-19T12:12:48;7.70;99.90
12872;DHT22;6504;53.766;9.626;2023-10-19T12:15:29;7.70;99.90
12872;DHT22;6504;53.766;9.626;2023-10-19T12:17:58;7.70;99.90
12872;DHT22;6504;53.766;9.626;2023-10-19T12:20:26;7.70;99.90
12872;DHT22;6504;53.766;9.626;2023-10-19T12:22:54;7.70;99.90
12872;DHT22;6504;53.766;9.626;2023-10-19T12:25:22;7.70;99.90
12872;DHT22;6504;53.766;9.626;2023-10-19T12:28:04;7.70;99.90
12872;DHT22;6504;53.766;9.626;2023-10-19T12:30:32;7.70;99.90
12872;DHT22;6504;53.766;9.626;2023-10-19T12:33:04;7.70;99.90
12872;DHT22;6504;53.766;9.626;2023-10-19T12:35:34;7.70;99.90
12872;DHT22;6504;53.766;9.626;2023-10-19T12:38:17;7.70;99.90
12872;DHT22;6504;53.766;9.626;2023-10-19T12:40:47;7.70;99.90
12872;DHT22;6504;53.766;9.626;2023-10-19T12:43:19;7.70;99.90
12872;DHT22;6504;53.766;9.626;2023-10-19T12:45:49;7.70;99.90
12872;DHT22;6504;53.766;9.626;2023-10-19T12:48:21;7.70;99.90
12872;DHT22;6504;53.766;9.626;2023-10-19T12:50:52;7.70;99.90
12872;DHT22;6504;53.766;9.626;2023-10-19T12:53:21;7.70;99.90
12872;DHT22;6504;53.766;9.626;2023-10-19T12:55:51;7.70;99.90
12872;DHT22;6504;53.766;9.626;2023-10-19T12:58:21;7.70;99.90
12872;DHT22;6504;53.766;9.626;2023-10-19T13:00:49;7.70;99.90
12872;DHT22;6504;53.766;9.626;2023-10-19T13:03:18;7.70;99.90
12872;DHT22;6504;53.766;9.626;2023-10-19T13:05:47;7.70;99.90
12872;DHT22;6504;53.766;9.626;2023-10-19T13:08:17;7.80;99.90
12872;DHT22;6504;53.766;9.626;2023-10-19T13:10:47;7.80;99.90
12872;DHT22;6504;53.766;9.626;2023-10-19T13:13:20;7.80;99.90
12872;DHT22;6504;53.766;9.626;2023-10-19T13:15:50;7.80;99.90
12872;DHT22;6504;53.766;9.626;2023-10-19T13:18:20;7.80;99.90
12872;DHT22;6504;53.766;9.626;2023-10-19T13:20:54;7.80;99.90
12872;DHT22;6504;53.766;9.626;2023-10-19T13:23:23;7.80;99.90
12872;DHT22;6504;53.766;9.626;2023-10-19T13:25:51;7.80;99.90
12872;DHT22;6504;53.766;9.626;2023-10-19T13:28:22;7.80;99.90
12872;DHT22;6504;53.766;9.626;2023-10-19T13:30:52;7.80;99.90
12872;DHT22;6504;53.766;9.626;2023-10-19T13:33:22;7.80;99.90
12872;DHT22;6504;53.766;9.626;2023-10-19T13:35:51;7.80;99.90
12872;DHT22;6504;53.766;9.626;2023-10-19T13:38:19;7.80;99.90
12872;DHT22;6504;53.766;9.626;2023-10-19T13:40:47;7.80;99.90
12872;DHT22;6504;53.766;9.626;2023-10-19T13:43:18;7.90;99.90
12872;DHT22;6504;53.766;9.626;2023-10-19T13:45:49;7.90;99.90
12872;DHT22;6504;53.766;9.626;2023-10-19T13:48:20;7.90;99.90
12872;DHT22;6504;53.766;9.626;2023-10-19T13:50:48;7.90;99.90
12872;DHT22;6504;53.766;9.626;2023-10-19T13:53:17;7.90;99.90
12872;DHT22;6504;53.766;9.626;2023-10-19T13:55:45;7.90;99.90
12872;DHT22;6504;53.766;9.626;2023-10-19T13:58:14;7.90;99.90
12872;DHT22;6504;53.766;9.626;2023-10-19T14:00:43;7.90;99.90
12872;DHT22;6504;53.766;9.626;2023-10-19T14:03:13;7.90;99.90
12872;DHT22;6504;53.766;9.626;2023-10-19T14:05:43;7.90;99.90
12872;DHT22;6504;53.766;9.626;2023-10-19T14:08:15;7.90;99.90
12872;DHT22;6504;53.766;9.626;2023-10-19T14:10:44;7.90;99.90
12872;DHT22;6504;53.766;9.626;2023-10-19T14:13:14;7.90;99.90
12872;DHT22;6504;53.766;9.626;2023-10-19T14:15:42;7.90;99.90
12872;DHT22;6504;53.766;9.626;2023-10-19T14:18:10;7.90;99.90
12872;DHT22;6504;53.766;9.626;2023-10-19T14:20:40;7.90;99.90
12872;DHT22;6504;53.766;9.626;2023-10-19T14:23:08;7.90;99.90
12872;DHT22;6504;53.766;9.626;2023-10-19T14:25:38;7.90;99.90
12872;DHT22;6504;53.766;9.626;2023-10-19T14:28:07;7.90;99.90
12872;DHT22;6504;53.766;9.626;2023-10-19T14:30:37;7.90;99.90
12872;DHT22;6504;53.766;9.626;2023-10-19T14:33:05;7.90;99.90
12872;DHT22;6504;53.766;9.626;2023-10-19T14:35:40;7.90;99.90
12872;DHT22;6504;53.766;9.626;2023-10-19T14:38:09;7.90;99.90
12872;DHT22;6504;53.766;9.626;2023-10-19T14:40:41;7.90;99.90
12872;DHT22;6504;53.766;9.626;2023-10-19T14:43:11;7.90;99.90
12872;DHT22;6504;53.766;9.626;2023-10-19T14:45:41;7.90;99.90
12872;DHT22;6504;53.766;9.626;2023-10-19T14:48:09;7.90;99.90
12872;DHT22;6504;53.766;9.626;2023-10-19T14:50:39;7.90;99.90
12872;DHT22;6504;53.766;9.626;2023-10-19T14:53:09;7.90;99.90
12872;DHT22;6504;53.766;9.626;2023-10-19T14:55:37;7.90;99.90
12872;DHT22;6504;53.766;9.626;2023-10-19T14:58:05;7.90;99.90
12872;DHT22;6504;53.766;9.626;2023-10-19T15:00:34;8.00;99.90
12872;DHT22;6504;53.766;9.626;2023-10-19T15:03:04;8.00;99.90
12872;DHT22;6504;53.766;9.626;2023-10-19T15:05:36;7.90;99.90
12872;DHT22;6504;53.766;9.626;2023-10-19T15:08:06;8.00;99.90
12872;DHT22;6504;53.766;9.626;2023-10-19T15:10:40;8.00;99.90
12872;DHT22;6504;53.766;9.626;2023-10-19T15:13:09;8.00;99.90
12872;DHT22;6504;53.766;9.626;2023-10-19T15:15:37;8.00;99.90
12872;DHT22;6504;53.766;9.626;2023-10-19T15:18:05;8.00;99.90
12872;DHT22;6504;53.766;9.626;2023-10-19T15:20:33;8.00;99.90
12872;DHT22;6504;53.766;9.626;2023-10-19T15:23:03;8.00;99.90
12872;DHT22;6504;53.766;9.626;2023-10-19T15:25:32;8.00;99.90
12872;DHT22;6504;53.766;9.626;2023-10-19T15:28:00;8.00;99.90
12872;DHT22;6504;53.766;9.626;2023-10-19T15:30:28;8.00;99.90
12872;DHT22;6504;53.766;9.626;2023-10-19T15:32:57;8.00;99.90
12872;DHT22;6504;53.766;9.626;2023-10-19T15:35:25;7.90;99.90
12872;DHT22;6504;53.766;9.626;2023-10-19T15:37:54;7.90;99.90
12872;DHT22;6504;53.766;9.626;2023-10-19T15:40:24;7.90;99.90
12872;DHT22;6504;53.766;9.626;2023-10-19T15:42:53;7.90;99.90
12872;DHT22;6504;53.766;9.626;2023-10-19T15:45:22;7.90;99.90
12872;DHT22;6504;53.766;9.626;2023-10-19T15:47:53;7.90;99.90
12872;DHT22;6504;53.766;9.626;2023-10-19T15:50:21;7.90;99.90
12872;DHT22;6504;53.766;9.626;2023-10-19T15:52:50;7.90;99.90
12872;DHT22;6504;53.766;9.626;2023-10-19T15:55:19;7.90;99.90
12872;DHT22;6504;53.766;9.626;2023-10-19T15:57:49;7.90;99.90
12872;DHT22;6504;53.766;9.626;2023-10-19T16:00:19;7.90;99.90
12872;DHT22;6504;53.766;9.626;2023-10-19T16:02:49;7.90;99.90
12872;DHT22;6504;53.766;9.626;2023-10-19T16:05:18;8.00;99.90
12872;DHT22;6504;53.766;9.626;2023-10-19T16:07:46;7.90;99.90
12872;DHT22;6504;53.766;9.626;2023-10-19T16:10:14;7.90;99.90
12872;DHT22;6504;53.766;9.626;2023-10-19T16:12:43;7.90;99.90
12872;DHT22;6504;53.766;9.626;2023-10-19T16:15:11;7.90;99.90
12872;DHT22;6504;53.766;9.626;2023-10-19T16:17:41;7.90;99.90
12872;DHT22;6504;53.766;9.626;2023-10-19T16:20:12;7.90;99.90
12872;DHT22;6504;53.766;9.626;2023-10-19T16:22:41;7.90;99.90
12872;DHT22;6504;53.766;9.626;2023-10-19T16:25:10;7.90;99.90